Time;durP1;ratioP1;P1;durP2;ratioP2;P2;SDS_P1;SDS_P2;PMS_P1;PMS_P2;Temp;Humidity;BMP_temperature;BMP_pressure;BME280_temperature;BME280_humidity;BME280_pressure;Samples;Min_cycle;Max_cycle;Signal;HPM_P1;HPM_P2
2023/08/06 00:11:12;;;;;;;4.75;4.00;;;;;;;14.04;100.00;100308.53;6213767;23;20082;-68
2023/08/06 00:13:38;;;;;;;5.65;4.00;;;;;;;14.04;100.00;100303.25;6162667;23;20049;-67
2023/08/06 00:16:12;;;;;;;8.60;4.07;;;;;;;14.07;100.00;100307.56;6138010;23;20016;-69
2023/08/06 00:18:40;;;;;;;5.00;4.07;;;;;;;14.02;100.00;100305.06;6187139;23;20047;-70
2023/08/06 00:21:06;;;;;;;6.07;4.43;;;;;;;14.03;100.00;100302.38;6187537;23;20346;-70
2023/08/06 00:23:32;;;;;;;5.38;4.65;;;;;;;14.00;100.00;100294.56;6187577;23;20004;-70
2023/08/06 00:25:57;;;;;;;6.20;4.07;;;;;;;14.02;100.00;100291.88;6213745;23;20000;-70
2023/08/06 00:28:23;;;;;;;6.78;4.45;;;;;;;14.06;100.00;100292.66;6188070;23;20016;-70
2023/08/06 00:30:55;;;;;;;6.47;4.28;;;;;;;14.02;100.00;100295.41;6164446;23;20036;-70
2023/08/06 00:33:24;;;;;;;6.55;4.10;;;;;;;13.98;100.00;100282.41;6163969;23;20015;-70
2023/08/06 00:35:50;;;;;;;7.15;4.53;;;;;;;14.00;100.00;100285.81;6164769;23;20009;-69
2023/08/06 00:38:16;;;;;;;5.50;4.55;;;;;;;13.99;100.00;100286.72;6188651;23;20023;-70
2023/08/06 00:40:43;;;;;;;8.10;4.25;;;;;;;14.00;100.00;100278.78;6163933;23;20498;-70
2023/08/06 00:43:09;;;;;;;6.20;4.43;;;;;;;14.00;100.00;100283.19;6164865;23;20008;-70
2023/08/06 00:45:36;;;;;;;7.22;4.43;;;;;;;13.97;100.00;100280.66;6140007;23;20019;-70
2023/08/06 00:48:04;;;;;;;6.70;4.50;;;;;;;13.99;100.00;100294.63;6188694;23;20008;-70
2023/08/06 00:50:30;;;;;;;7.35;4.57;;;;;;;13.99;100.00;100279.72;6187999;23;20008;-70
2023/08/06 00:52:55;;;;;;;5.60;4.55;;;;;;;14.00;100.00;100280.56;6139082;23;20016;-70
2023/08/06 00:55:21;;;;;;;6.97;4.70;;;;;;;14.01;100.00;100282.28;6164061;23;20032;-70
2023/08/06 00:57:46;;;;;;;5.82;4.60;;;;;;;14.01;100.00;100272.59;6188860;23;20355;-70
2023/08/06 01:00:12;;;;;;;8.20;4.60;;;;;;;14.01;100.00;100277.03;6164137;23;20012;-70
2023/08/06 01:02:38;;;;;;;6.88;4.80;;;;;;;14.00;100.00;100281.41;6162958;23;20012;-70
2023/08/06 01:05:04;;;;;;;6.68;5.15;;;;;;;14.00;100.00;100280.56;6188424;23;20009;-70
2023/08/06 01:07:32;;;;;;;5.88;4.43;;;;;;;14.06;100.00;100280.34;6164036;23;20015;-72
2023/08/06 01:10:39;;;;;;;5.43;4.38;;;;;;;14.07;100.00;100276.78;6188761;23;20323;-73
2023/08/06 01:13:10;;;;;;;5.32;4.78;;;;;;;14.06;100.00;100280.34;6187837;23;20066;-73
2023/08/06 01:15:49;;;;;;;5.47;4.63;;;;;;;14.06;100.00;100280.34;6189088;23;20012;-73
2023/08/06 01:18:14;;;;;;;6.07;4.60;;;;;;;14.08;100.00;100282.91;6188083;23;20051;-73
2023/08/06 01:20:40;;;;;;;7.32;4.65;;;;;;;14.05;100.00;100276.00;6138912;23;20016;-72
2023/08/06 01:23:05;;;;;;;9.88;4.70;;;;;;;14.02;100.00;100270.81;6163486;23;20096;-72
2023/08/06 01:25:45;;;;;;;7.43;4.80;;;;;;;14.02;100.00;100286.63;6163521;23;20406;-72
2023/08/06 01:28:48;;;;;;;6.35;4.68;;;;;;;14.03;100.00;100281.28;6188689;23;20079;-72
2023/08/06 01:31:21;;;;;;;5.47;4.60;;;;;;;14.02;100.00;100279.59;6187856;23;20008;-72
2023/08/06 01:33:49;;;;;;;8.93;4.57;;;;;;;13.99;100.00;100281.47;6187601;23;20013;-73
2023/08/06 01:36:18;;;;;;;6.18;4.97;;;;;;;13.95;100.00;100285.09;6188262;23;20012;-72
2023/08/06 01:38:44;;;;;;;6.35;4.70;;;;;;;13.93;100.00;100279.06;6162394;23;20075;-73
2023/08/06 01:41:10;;;;;;;6.47;4.75;;;;;;;13.95;100.00;100285.09;6163470;23;20013;-72
2023/08/06 01:43:35;;;;;;;7.68;4.72;;;;;;;13.93;100.00;100274.63;6163892;23;20030;-72
2023/08/06 01:46:01;;;;;;;5.65;4.80;;;;;;;13.86;100.00;100279.28;6163194;23;20035;-72
2023/08/06 01:48:26;;;;;;;7.15;5.10;;;;;;;13.85;100.00;100272.28;6138176;23;20085;-72
2023/08/06 01:50:51;;;;;;;5.47;4.60;;;;;;;13.83;100.00;100268.84;6162913;23;20083;-72
2023/08/06 01:53:17;;;;;;;7.10;4.82;;;;;;;13.82;100.00;100272.38;6163525;23;20099;-72
2023/08/06 01:55:48;;;;;;;7.60;5.07;;;;;;;13.83;100.00;100276.75;6163303;23;20009;-72
2023/08/06 01:58:13;;;;;;;;;;;;;;;13.97;100.00;100278.03;6214902;23;20004;-72
2023/08/06 02:00:38;;;;;;;6.65;4.43;;;;;;;13.90;100.00;100273.91;6161491;23;20026;-72
2023/08/06 02:03:04;;;;;;;7.40;4.43;;;;;;;13.87;100.00;100272.22;6163020;23;20362;-72
2023/08/06 02:05:29;;;;;;;5.93;4.53;;;;;;;13.89;100.00;100267.75;6162863;23;20013;-73
2023/08/06 02:07:54;;;;;;;5.07;4.03;;;;;;;13.88;100.00;100270.44;6162686;23;20016;-72
2023/08/06 02:10:20;;;;;;;6.93;4.95;;;;;;;13.87;100.00;100272.22;6162940;23;20021;-72
2023/08/06 02:12:45;;;;;;;6.47;4.60;;;;;;;13.90;100.00;100273.91;6214573;23;20606;-72
2023/08/06 02:15:11;;;;;;;6.30;4.63;;;;;;;13.86;100.00;100271.38;6163401;23;20320;-72
2023/08/06 02:17:36;;;;;;;7.03;4.78;;;;;;;13.86;100.00;100273.13;6187683;23;20434;-72
2023/08/06 02:20:02;;;;;;;5.80;4.38;;;;;;;13.86;100.00;100279.28;6188352;23;20012;-72
2023/08/06 02:22:27;;;;;;;6.45;4.72;;;;;;;13.85;100.00;100272.28;6188441;23;20039;-72
2023/08/06 02:24:53;;;;;;;6.15;4.53;;;;;;;13.89;100.00;100274.78;6187659;23;20359;-72
2023/08/06 02:27:21;;;;;;;6.25;4.32;;;;;;;13.89;100.00;100273.00;6137986;23;20009;-72
2023/08/06 02:29:46;;;;;;;6.43;4.78;;;;;;;13.89;100.00;100274.78;6163264;23;20008;-72
2023/08/06 02:32:12;;;;;;;6.85;4.55;;;;;;;13.90;100.00;100266.00;6138082;23;20012;-72
2023/08/06 02:34:37;;;;;;;5.93;4.53;;;;;;;13.93;100.00;100268.50;6162275;23;20431;-72
2023/08/06 02:37:03;;;;;;;8.30;4.45;;;;;;;13.91;100.00;100265.09;6187675;23;20013;-72
2023/08/06 02:39:28;;;;;;;6.07;4.75;;;;;;;13.96;100.00;100260.50;6137965;23;20019;-72
2023/08/06 02:41:54;;;;;;;5.97;4.40;;;;;;;13.95;100.00;100257.03;6188095;23;20343;-73
2023/08/06 02:44:19;;;;;;;5.80;4.38;;;;;;;13.99;100.00;100257.75;6137218;23;20016;-72
2023/08/06 02:46:45;;;;;;;7.50;4.15;;;;;;;14.02;100.00;100262.91;6162604;23;20389;-72
2023/08/06 02:49:11;;;;;;;9.40;4.45;;;;;;;13.98;100.00;100256.91;6137777;23;20083;-72
2023/08/06 02:51:36;;;;;;;5.15;4.20;;;;;;;13.99;100.00;100263.03;6162532;23;20088;-72
2023/08/06 02:54:01;;;;;;;6.88;4.60;;;;;;;13.98;100.00;100261.31;6161642;23;20316;-70
2023/08/06 02:56:27;;;;;;;8.77;4.65;;;;;;;13.96;100.00;100260.50;6162569;23;20015;-70
2023/08/06 02:58:52;;;;;;;5.18;4.40;;;;;;;13.97;100.00;100255.19;6162649;23;20020;-70
2023/08/06 03:01:18;;;;;;;5.35;4.60;;;;;;;13.96;100.00;100252.59;6162282;23;20015;-70
2023/08/06 03:03:43;;;;;;;6.78;4.43;;;;;;;13.96;100.00;100252.59;6162204;23;20019;-70
2023/08/06 03:06:09;;;;;;;5.75;4.40;;;;;;;13.94;100.00;100251.81;6186974;23;20023;-69
2023/08/06 03:08:34;;;;;;;8.63;4.53;;;;;;;13.95;100.00;100253.50;6162816;23;20012;-70
2023/08/06 03:11:00;;;;;;;6.05;4.03;;;;;;;13.94;100.00;100254.44;6162752;23;20451;-72
2023/08/06 03:13:25;;;;;;;6.00;3.97;;;;;;;13.93;100.00;100250.06;6138237;23;20074;-72
2023/08/06 03:15:59;;;;;;;5.82;4.38;;;;;;;13.95;100.00;100257.03;6162460;23;20036;-72
2023/08/06 03:18:25;;;;;;;7.07;4.80;;;;;;;13.95;100.00;100256.13;6186401;23;20036;-72
2023/08/06 03:20:51;;;;;;;5.38;4.70;;;;;;;13.97;100.00;100262.22;6161948;23;20316;-72
2023/08/06 03:23:17;;;;;;;6.93;4.78;;;;;;;14.03;100.00;100254.09;6161255;23;20123;-72
2023/08/06 03:25:42;;;;;;;7.45;4.68;;;;;;;14.07;100.00;100255.72;6187102;23;20449;-72
2023/08/06 03:28:09;;;;;;;8.30;4.97;;;;;;;14.15;100.00;100260.69;6162466;23;20040;-72
2023/08/06 03:30:35;;;;;;;5.70;4.32;;;;;;;14.17;100.00;100251.84;6185732;23;20016;-70
2023/08/06 03:33:00;;;;;;;8.13;5.13;;;;;;;14.22;100.00;100256.94;6186785;23;20386;-70
2023/08/06 03:35:26;;;;;;;6.95;4.80;;;;;;;14.25;100.00;100253.31;6162572;23;20009;-70
2023/08/06 03:37:51;;;;;;;6.22;4.45;;;;;;;14.21;100.00;100250.81;6162197;23;20036;-70
2023/08/06 03:40:16;;;;;;;5.05;4.20;;;;;;;14.30;100.00;100254.03;6213462;23;20342;-70
2023/08/06 03:42:42;;;;;;;5.68;4.40;;;;;;;14.30;100.00;100256.66;6161428;23;20382;-70
2023/08/06 03:45:08;;;;;;;6.50;4.50;;;;;;;14.39;100.00;100251.03;6186788;23;20023;-70
2023/08/06 03:47:34;;;;;;;5.93;4.28;;;;;;;14.34;100.00;100256.50;6161665;23;20434;-70
2023/08/06 03:49:59;;;;;;;5.55;4.13;;;;;;;14.43;100.00;100260.56;6162545;23;20067;-69
2023/08/06 03:52:24;;;;;;;5.43;4.10;;;;;;;14.45;100.00;100260.50;6137886;23;20122;-69
2023/08/06 03:54:50;;;;;;;5.85;4.60;;;;;;;14.42;100.00;100266.75;6186286;23;20327;-70
2023/08/06 03:57:15;;;;;;;5.88;4.47;;;;;;;14.42;100.00;100261.47;6161029;23;20038;-70
2023/08/06 03:59:41;;;;;;;4.78;4.10;;;;;;;14.43;100.00;100257.94;6161956;23;20367;-69
2023/08/06 04:02:07;;;;;;;6.40;4.15;;;;;;;14.46;100.00;100263.06;6186256;23;20095;-70
2023/08/06 04:04:32;;;;;;;5.28;4.00;;;;;;;14.46;100.00;100263.06;6163948;23;20019;-70
2023/08/06 04:06:58;;;;;;;5.82;4.57;;;;;;;14.46;100.00;100257.81;6163664;23;20508;-70
2023/08/06 04:09:23;;;;;;;6.40;4.45;;;;;;;14.47;100.00;100254.25;6163640;23;20493;-69
2023/08/06 04:11:48;;;;;;;4.57;4.05;;;;;;;14.42;100.00;100255.34;6187828;23;20020;-70
2023/08/06 04:14:14;;;;;;;7.43;4.38;;;;;;;14.44;100.00;100262.28;6187377;23;20104;-70
2023/08/06 04:16:39;;;;;;;6.30;4.20;;;;;;;14.51;100.00;100262.91;6163318;23;20012;-70
2023/08/06 04:19:05;;;;;;;6.22;3.88;;;;;;;14.55;100.00;100267.16;6188516;23;20456;-69
2023/08/06 04:21:30;;;;;;;4.15;3.60;;;;;;;14.49;100.00;100264.75;6139820;23;20357;-69
2023/08/06 04:23:56;;;;;;;5.50;4.05;;;;;;;14.51;100.00;100274.31;6188628;23;20449;-70
2023/08/06 04:26:22;;;;;;;6.43;4.35;;;;;;;14.48;100.00;100270.94;6164041;23;20013;-67
2023/08/06 04:28:48;;;;;;;6.15;4.18;;;;;;;14.54;100.00;100274.22;6163903;23;20078;-67
2023/08/06 04:31:14;;;;;;;6.18;3.95;;;;;;;14.51;100.00;100284.00;6188546;23;20020;-68
2023/08/06 04:33:39;;;;;;;6.18;3.97;;;;;;;14.51;100.00;100276.97;6163166;23;20207;-67
2023/08/06 04:36:05;;;;;;;7.75;4.47;;;;;;;14.60;100.00;100282.81;6188632;23;20009;-67
2023/08/06 04:38:30;;;;;;;8.20;4.60;;;;;;;14.61;100.00;100284.50;6188664;23;20020;-67
2023/08/06 04:40:56;;;;;;;5.50;4.05;;;;;;;14.61;100.00;100284.50;6160907;23;20363;-67
2023/08/06 04:43:21;;;;;;;10.70;5.15;;;;;;;14.63;100.00;100278.31;6187267;23;20414;-67
2023/08/06 04:45:47;;;;;;;7.20;4.18;;;;;;;14.67;100.00;100271.16;6163984;23;20375;-68
2023/08/06 04:48:13;;;;;;;6.93;4.13;;;;;;;14.72;100.00;100269.19;6163412;23;20156;-68
2023/08/06 04:50:46;;;;;;;4.97;4.05;;;;;;;14.76;100.00;100275.22;6164018;23;20008;-71
2023/08/06 04:53:12;;;;;;;6.57;4.30;;;;;;;14.88;100.00;100282.63;6187950;23;20334;-72
2023/08/06 04:55:38;;;;;;;6.90;4.35;;;;;;;14.79;100.00;100280.38;6188091;23;20000;-72
2023/08/06 04:58:03;;;;;;;5.93;4.40;;;;;;;14.88;100.00;100286.16;6163674;23;20017;-72
2023/08/06 05:00:29;;;;;;;5.50;3.83;;;;;;;14.96;100.00;100285.00;6163216;23;20009;-72
2023/08/06 05:02:54;;;;;;;5.53;3.63;;;;;;;14.98;100.00;100285.78;6163221;23;20012;-72
2023/08/06 05:05:20;;;;;;;5.57;3.80;;;;;;;15.02;100.00;100282.97;6162202;23;20291;-72
2023/08/06 05:07:48;;;;;;;4.95;3.63;;;;;;;15.01;100.00;100301.50;6162271;23;20090;-72
2023/08/06 05:10:14;;;;;;;4.65;3.75;;;;;;;15.02;100.00;100295.31;6185937;23;20420;-72
2023/08/06 05:12:39;;;;;;;6.40;4.00;;;;;;;15.07;100.00;100293.38;6162115;23;20020;-70
2023/08/06 05:15:05;;;;;;;6.32;4.15;;;;;;;15.05;100.00;100305.72;6162828;23;20103;-70
2023/08/06 05:17:30;;;;;;;4.22;3.83;;;;;;;15.07;100.00;100304.75;6162158;23;20095;-70
2023/08/06 05:19:56;;;;;;;5.65;3.53;;;;;;;15.10;100.00;100303.78;6187687;23;20096;-70
2023/08/06 05:22:21;;;;;;;6.40;3.88;;;;;;;15.07;100.00;100311.84;6162205;23;20008;-70
2023/08/06 05:24:47;;;;;;;6.32;3.83;;;;;;;15.04;100.00;100312.81;6188008;23;20015;-70
2023/08/06 05:27:12;;;;;;;4.85;3.40;;;;;;;15.15;100.00;100314.16;6162460;23;20031;-69
2023/08/06 05:29:38;;;;;;;6.65;3.55;;;;;;;15.15;100.00;100317.66;6188004;23;20081;-70
2023/08/06 05:32:03;;;;;;;5.75;3.72;;;;;;;15.19;100.00;100321.88;6163393;23;20023;-70
2023/08/06 05:34:29;;;;;;;5.72;3.90;;;;;;;15.19;100.00;100319.25;6162451;23;20012;-70
2023/08/06 05:36:54;;;;;;;4.03;3.60;;;;;;;15.28;100.00;100325.09;6162787;23;20107;-70
2023/08/06 05:39:20;;;;;;;5.53;3.63;;;;;;;15.25;100.00;100328.72;6187404;23;20008;-69
2023/08/06 05:41:45;;;;;;;4.20;3.40;;;;;;;15.37;100.00;100330.88;6138828;23;20666;-70
2023/08/06 05:44:11;;;;;;;6.20;4.00;;;;;;;15.45;100.00;100332.34;6162899;23;20067;-70
2023/08/06 05:46:36;;;;;;;5.82;3.80;;;;;;;15.50;100.00;100336.53;6163283;23;20096;-69
2023/08/06 05:49:02;;;;;;;6.18;3.90;;;;;;;15.56;100.00;100346.84;6187855;23;20012;-70
2023/08/06 05:51:28;;;;;;;7.80;4.50;;;;;;;15.55;100.00;100347.75;6138990;23;20012;-70
2023/08/06 05:53:53;;;;;;;6.80;4.55;;;;;;;15.59;100.00;100345.84;6164121;23;20009;-70
2023/08/06 05:56:19;;;;;;;7.45;4.40;;;;;;;15.69;100.00;100344.56;6188192;23;20004;-69
2023/08/06 05:58:46;;;;;;;6.90;4.00;;;;;;;15.80;100.00;100349.41;6138295;23;20376;-70
2023/08/06 06:01:12;;;;;;;7.65;4.20;;;;;;;15.98;100.00;100349.59;6162826;23;20020;-70
2023/08/06 06:03:37;;;;;;;6.72;4.50;;;;;;;16.04;100.00;100355.47;6162362;23;20012;-70
2023/08/06 06:06:03;;;;;;;5.72;4.00;;;;;;;16.11;100.00;100359.56;6162975;23;20070;-70
2023/08/06 06:08:28;;;;;;;6.35;3.50;;;;;;;16.19;100.00;100364.53;6188268;23;20005;-70
2023/08/06 06:10:54;;;;;;;6.55;4.00;;;;;;;16.15;100.00;100365.59;6162756;23;20021;-70
2023/08/06 06:13:19;;;;;;;6.65;4.30;;;;;;;16.26;100.00;100373.91;6187473;23;20122;-70
2023/08/06 06:15:47;;;;;;;5.68;3.95;;;;;;;16.37;100.00;100369.94;6138402;23;20063;-70
2023/08/06 06:18:13;;;;;;;5.65;4.05;;;;;;;16.37;100.00;100375.25;6187112;23;20000;-72
2023/08/06 06:20:38;;;;;;;6.57;3.95;;;;;;;16.41;100.00;100379.47;6186181;23;20463;-72
2023/08/06 06:23:04;;;;;;;7.07;4.30;;;;;;;16.44;99.27;100381.97;6162453;23;20047;-72
2023/08/06 06:25:29;;;;;;;5.95;4.55;;;;;;;16.41;98.77;100382.97;6186907;23;20512;-72
2023/08/06 06:27:55;;;;;;;5.75;4.63;;;;;;;16.38;98.75;100385.75;6187389;23;20104;-72
2023/08/06 06:30:20;;;;;;;6.82;5.05;;;;;;;16.31;98.56;100391.38;6161937;23;20103;-72
2023/08/06 06:32:46;;;;;;;9.23;6.97;;;;;;;16.21;99.47;100399.69;6184343;23;20047;-72
2023/08/06 06:35:12;;;;;;;8.60;6.63;;;;;;;16.06;98.56;100403.84;6161938;23;20068;-72
2023/08/06 06:37:37;;;;;;;10.48;7.57;;;;;;;15.90;98.56;100398.34;6161465;23;20343;-72
2023/08/06 06:40:04;;;;;;;9.55;8.23;;;;;;;15.97;99.26;100413.94;6186875;23;20008;-72
2023/08/06 06:42:29;;;;;;;10.27;7.78;;;;;;;15.96;99.71;100412.19;6161993;23;20497;-72
2023/08/06 06:44:55;;;;;;;9.73;8.07;;;;;;;15.96;100.00;100409.56;6186442;23;20009;-72
2023/08/06 06:47:20;;;;;;;9.90;6.75;;;;;;;15.91;100.00;100413.25;6161752;23;20387;-72
2023/08/06 06:49:45;;;;;;;11.38;8.82;;;;;;;15.98;100.00;100408.56;6163121;23;20019;-72
2023/08/06 06:52:11;;;;;;;9.00;7.28;;;;;;;15.99;100.00;100406.78;6162041;23;20074;-72
2023/08/06 06:54:37;;;;;;;9.52;6.32;;;;;;;15.94;100.00;100415.75;6162729;23;20016;-72
2023/08/06 06:57:02;;;;;;;7.15;6.40;;;;;;;15.92;100.00;100414.97;6187765;23;20008;-72
2023/08/06 06:59:28;;;;;;;7.30;5.78;;;;;;;15.96;100.00;100422.75;6161915;23;20012;-72
2023/08/06 07:01:53;;;;;;;7.45;5.88;;;;;;;15.92;100.00;100416.75;6162499;23;20016;-72
2023/08/06 07:04:19;;;;;;;7.43;6.30;;;;;;;15.86;100.00;100422.28;6186676;23;20009;-72
2023/08/06 07:06:44;;;;;;;9.10;6.25;;;;;;;15.87;100.00;100424.84;6186601;23;20343;-72
2023/08/06 07:09:10;;;;;;;7.65;6.30;;;;;;;15.86;100.00;100422.28;6186821;23;20039;-72
2023/08/06 07:11:35;;;;;;;8.30;5.72;;;;;;;15.88;100.00;100421.28;6138374;23;20021;-72
2023/08/06 07:14:01;;;;;;;8.82;6.15;;;;;;;15.99;100.00;100427.91;6162301;23;20031;-72
2023/08/06 07:16:27;;;;;;;7.60;5.47;;;;;;;16.02;100.00;100431.31;6187510;23;20017;-72
2023/08/06 07:18:53;;;;;;;7.03;6.22;;;;;;;16.03;100.00;100424.22;6186821;23;20427;-72
2023/08/06 07:21:19;;;;;;;7.93;6.55;;;;;;;16.08;100.00;100425.75;6186957;23;20004;-72
2023/08/06 07:23:45;;;;;;;8.07;6.07;;;;;;;16.18;100.00;100430.69;6162481;23;20377;-72
2023/08/06 07:26:11;;;;;;;8.07;6.00;;;;;;;16.16;100.00;100436.03;6185214;23;20108;-72
2023/08/06 07:28:36;;;;;;;9.90;6.68;;;;;;;16.17;100.00;100439.53;6161622;23;20410;-69
2023/08/06 07:31:03;;;;;;;8.15;6.43;;;;;;;16.13;100.00;100441.44;6138204;23;20312;-69
2023/08/06 07:33:29;;;;;;;8.70;7.00;;;;;;;16.17;100.00;100443.03;6162963;23;20087;-70
2023/08/06 07:35:54;;;;;;;9.98;7.65;;;;;;;16.18;100.00;100450.03;6187945;23;20051;-69
2023/08/06 07:38:20;;;;;;;10.32;8.00;;;;;;;16.14;100.00;100456.38;6162631;23;20087;-70
2023/08/06 07:40:45;;;;;;;9.95;7.25;;;;;;;16.11;99.38;100448.56;6164817;23;20204;-70
2023/08/06 07:43:11;;;;;;;8.95;8.05;;;;;;;16.21;100.00;100447.25;6189875;23;20013;-69
2023/08/06 07:45:37;;;;;;;8.90;7.72;;;;;;;16.18;99.34;100459.78;6164071;23;20012;-69
2023/08/06 07:48:04;;;;;;;9.68;8.70;;;;;;;16.19;99.89;100454.41;6139943;23;20342;-70
2023/08/06 07:50:30;;;;;;;8.20;7.40;;;;;;;16.13;99.73;100465.22;6164291;23;20013;-69
2023/08/06 07:52:55;;;;;;;7.85;5.65;;;;;;;16.05;99.06;100462.91;6187884;23;20040;-70
2023/08/06 07:55:21;;;;;;;2.90;2.55;;;;;;;15.85;98.15;100465.50;6139481;23;20016;-70
2023/08/06 07:57:46;;;;;;;2.25;1.35;;;;;;;15.62;97.61;100461.09;6164981;23;20020;-69
2023/08/06 08:00:12;;;;;;;0.95;0.93;;;;;;;15.32;97.43;100475.38;6138372;23;20019;-70
2023/08/06 08:02:39;;;;;;;1.10;0.63;;;;;;;15.14;98.48;100486.59;6163080;23;20355;-70
2023/08/06 08:05:07;;;;;;;1.23;0.60;;;;;;;15.04;99.82;100483.44;6164637;23;20008;-69
2023/08/06 08:07:32;;;;;;;0.88;0.70;;;;;;;14.93;100.00;100485.59;6188777;23;20016;-69
2023/08/06 08:09:58;;;;;;;1.13;0.80;;;;;;;14.94;100.00;100479.41;6161612;23;20469;-70
2023/08/06 08:12:23;;;;;;;0.90;0.80;;;;;;;14.77;100.00;100485.28;6187414;23;20158;-70
2023/08/06 08:14:49;;;;;;;1.08;0.98;;;;;;;14.58;100.00;100482.38;6188718;23;20457;-67
2023/08/06 08:17:14;;;;;;;1.63;1.33;;;;;;;14.47;100.00;100491.53;6139893;23;20374;-67
2023/08/06 08:19:40;;;;;;;4.80;1.60;;;;;;;14.41;100.00;100497.00;6188532;23;20020;-68
2023/08/06 08:22:06;;;;;;;2.45;1.70;;;;;;;14.33;100.00;100501.66;6186835;23;20059;-68
2023/08/06 08:24:31;;;;;;;2.97;2.40;;;;;;;14.24;100.00;100502.84;6188010;23;20032;-68
2023/08/06 08:26:57;;;;;;;3.95;2.90;;;;;;;14.18;100.00;100511.78;6162927;23;20016;-68
2023/08/06 08:29:22;;;;;;;5.85;3.55;;;;;;;14.12;100.00;100509.38;6188780;23;20016;-69
2023/08/06 08:31:50;;;;;;;4.90;3.35;;;;;;;14.06;100.00;100514.81;6187604;23;20099;-70
2023/08/06 08:34:16;;;;;;;4.38;3.88;;;;;;;14.00;100.00;100520.28;6187232;23;20043;-70
2023/08/06 08:36:42;;;;;;;5.35;3.97;;;;;;;13.99;100.00;100523.81;6163527;23;20034;-70
2023/08/06 08:39:07;;;;;;;5.43;4.07;;;;;;;13.99;100.00;100522.06;6188251;23;20087;-70
2023/08/06 08:41:33;;;;;;;6.55;4.28;;;;;;;13.97;100.00;100523.00;6188472;23;20017;-70
2023/08/06 08:44:00;;;;;;;6.00;3.92;;;;;;;13.99;100.00;100529.97;6187977;23;20420;-70
2023/08/06 08:46:33;;;;;;;5.03;3.67;;;;;;;13.88;100.00;100529.44;6188265;23;20441;-69
2023/08/06 08:48:59;;;;;;;5.63;3.70;;;;;;;13.90;100.00;100538.13;6186853;23;20011;-70
2023/08/06 08:51:27;;;;;;;4.60;3.55;;;;;;;13.84;100.00;100538.31;6188819;23;20013;-69
2023/08/06 08:53:56;;;;;;;7.38;3.97;;;;;;;13.82;100.00;100535.75;6164212;23;20095;-69
2023/08/06 08:56:22;;;;;;;5.03;3.25;;;;;;;13.80;100.00;100542.81;6164342;23;20343;-70
2023/08/06 08:58:48;;;;;;;5.95;3.47;;;;;;;13.80;100.00;100544.59;6188640;23;20008;-70
2023/08/06 09:01:15;;;;;;;5.15;3.22;;;;;;;13.76;100.00;100543.81;6138167;23;20020;-70
2023/08/06 09:03:42;;;;;;;5.70;3.67;;;;;;;13.75;100.00;100555.28;6160372;23;20035;-70
2023/08/06 09:06:11;;;;;;;4.88;3.40;;;;;;;13.77;100.00;100552.59;6186786;23;20004;-70
2023/08/06 09:08:41;;;;;;;5.82;3.38;;;;;;;13.77;100.00;100558.72;6140199;23;20036;-69
2023/08/06 09:11:12;;;;;;;5.88;3.92;;;;;;;13.78;100.00;100555.19;6182654;23;20043;-70
2023/08/06 09:13:38;;;;;;;4.75;3.47;;;;;;;13.79;100.00;100559.53;6162003;23;20090;-70
2023/08/06 09:16:04;;;;;;;5.57;3.55;;;;;;;13.81;100.00;100568.25;6161878;23;20078;-69
2023/08/06 09:18:30;;;;;;;5.32;3.10;;;;;;;13.80;100.00;100561.25;6186351;23;20067;-69
2023/08/06 09:20:56;;;;;;;5.95;3.10;;;;;;;13.85;100.00;100571.66;6187265;23;20013;-70
2023/08/06 09:23:30;;;;;;;4.55;2.67;;;;;;;13.84;100.00;100578.69;6162089;23;20043;-70
2023/08/06 09:25:56;;;;;;;5.28;2.85;;;;;;;13.86;100.00;100578.63;6188185;23;20432;-70
2023/08/06 09:28:22;;;;;;;5.28;2.88;;;;;;;13.86;100.00;100583.91;6163093;23;20016;-68
2023/08/06 09:30:48;;;;;;;5.38;3.22;;;;;;;13.86;100.00;100581.28;6160516;23;20012;-67
2023/08/06 09:33:18;;;;;;;5.13;2.67;;;;;;;13.84;100.00;100581.31;6187289;23;20319;-68
2023/08/06 09:35:46;;;;;;;4.82;2.72;;;;;;;13.79;100.00;100588.50;6162322;23;20091;-68
2023/08/06 09:38:12;;;;;;;5.03;2.60;;;;;;;13.78;100.00;100588.56;6161623;23;20043;-68
2023/08/06 09:40:39;;;;;;;3.80;2.53;;;;;;;13.77;100.00;100600.00;6187213;23;20013;-70
2023/08/06 09:43:07;;;;;;;7.15;2.80;;;;;;;13.82;100.00;100598.06;6186093;23;20670;-69
2023/08/06 09:45:35;;;;;;;4.40;2.70;;;;;;;13.80;100.00;100592.84;6183285;23;20008;-70
2023/08/06 09:48:04;;;;;;;4.72;2.80;;;;;;;13.85;100.00;100592.75;6212259;23;20315;-69
2023/08/06 09:50:31;;;;;;;4.22;2.35;;;;;;;13.90;100.00;100606.63;6162609;23;20012;-70
2023/08/06 09:52:58;;;;;;;5.03;2.63;;;;;;;13.91;100.00;100610.13;6188057;23;20008;-69
2023/08/06 09:55:27;;;;;;;4.60;2.72;;;;;;;13.98;100.00;100606.41;6162585;23;20008;-70
2023/08/06 09:57:53;;;;;;;5.43;2.65;;;;;;;13.99;100.00;100616.03;6163297;23;20023;-70
2023/08/06 10:00:19;;;;;;;5.72;2.83;;;;;;;14.00;100.00;100612.47;6161969;23;20013;-70
2023/08/06 10:02:49;;;;;;;7.32;3.60;;;;;;;14.03;100.00;100620.28;6161681;23;20449;-70
2023/08/06 10:05:15;;;;;;;5.78;3.05;;;;;;;14.08;100.00;100615.75;6186660;23;20066;-68
2023/08/06 10:07:43;;;;;;;6.50;3.13;;;;;;;14.05;100.00;100618.50;6214494;23;20049;-68
2023/08/06 10:10:09;;;;;;;7.45;3.50;;;;;;;14.06;100.00;100628.09;6187334;23;20104;-68
2023/08/06 10:12:40;;;;;;;6.15;3.33;;;;;;;14.08;100.00;100621.03;6186754;23;20501;-68
2023/08/06 10:15:10;;;;;;;5.50;3.15;;;;;;;14.09;100.00;100622.72;6214026;23;20019;-68
2023/08/06 10:17:36;;;;;;;;;;;;;;;14.24;100.00;100631.97;6184673;23;20012;-69
2023/08/06 10:20:06;;;;;;;6.00;3.17;;;;;;;14.18;100.00;100622.47;6162906;23;19911;-68
2023/08/06 10:22:32;;;;;;;8.00;3.77;;;;;;;14.16;100.00;100626.91;6187043;23;20070;-69
2023/08/06 10:25:04;;;;;;;5.97;3.47;;;;;;;14.21;100.00;100632.91;6188231;23;20047;-68
2023/08/06 10:27:35;;;;;;;8.15;4.18;;;;;;;14.17;100.00;100631.28;6186120;23;20004;-68
2023/08/06 10:30:46;;;;;;;5.35;3.67;;;;;;;14.29;100.00;100634.47;6187495;23;20058;-67
2023/08/06 10:33:12;;;;;;;6.95;3.90;;;;;;;14.29;100.00;100631.81;6037696;23;20082;-68
2023/08/06 10:35:49;;;;;;;6.60;3.72;;;;;;;14.31;100.00;100637.91;6016593;23;20015;-68
2023/08/06 10:38:25;;;;;;;7.95;3.67;;;;;;;14.29;100.00;100634.47;6078408;23;20027;-68
2023/08/06 10:40:53;;;;;;;6.93;3.90;;;;;;;14.36;100.00;100641.28;6214293;23;20022;-68
2023/08/06 10:43:33;;;;;;;6.63;4.05;;;;;;;14.37;100.00;100633.31;6187474;23;20008;-67
2023/08/06 10:46:01;;;;;;;8.88;3.92;;;;;;;14.40;100.00;100647.31;6186263;23;20012;-68
2023/08/06 10:48:40;;;;;;;6.78;4.10;;;;;;;14.38;100.00;100639.47;6185883;23;20036;-68
2023/08/06 10:51:13;;;;;;;8.15;4.80;;;;;;;14.37;100.00;100646.50;6161900;23;20411;-68
2023/08/06 10:53:43;;;;;;;6.72;3.90;;;;;;;14.43;100.00;100645.44;6187624;23;20359;-67
2023/08/06 10:56:18;;;;;;;5.22;3.58;;;;;;;14.45;100.00;100651.56;6187500;23;20095;-67
2023/08/06 10:58:46;;;;;;;6.72;3.80;;;;;;;14.47;100.00;100651.50;6162350;23;20016;-69
2023/08/06 11:01:12;;;;;;;6.57;3.90;;;;;;;14.54;100.00;100653.88;6187056;23;20058;-67
2023/08/06 11:03:38;;;;;;;5.35;3.28;;;;;;;14.50;100.00;100654.88;6186644;23;20012;-68
2023/08/06 11:06:06;;;;;;;5.63;3.50;;;;;;;14.51;100.00;100656.63;6162153;23;20012;-68
2023/08/06 11:08:38;;;;;;;8.15;3.90;;;;;;;14.50;100.00;100661.94;6187208;23;20011;-68
2023/08/06 11:11:15;;;;;;;7.28;3.20;;;;;;;14.49;100.00;100665.47;6214048;23;20040;-68
2023/08/06 11:13:47;;;;;;;5.15;3.20;;;;;;;14.44;100.00;100670.91;6213268;23;20020;-67
2023/08/06 11:16:15;;;;;;;5.03;3.30;;;;;;;14.49;100.00;100658.41;6187323;23;20449;-67
2023/08/06 11:18:44;;;;;;;7.80;3.05;;;;;;;14.53;100.00;100675.03;6137929;23;20434;-68
2023/08/06 11:21:11;;;;;;;7.57;3.35;;;;;;;14.54;100.00;100666.22;6162507;23;20067;-67
2023/08/06 11:23:37;;;;;;;6.13;3.00;;;;;;;14.55;100.00;100666.16;6187215;23;20023;-68
2023/08/06 11:26:03;;;;;;;5.97;2.88;;;;;;;14.53;100.00;100675.03;6187022;23;20008;-68